LGTSLGSR

Guest
Details From LGTS - Thessalonik Makedonia
To LGSR - Santorini
Flight Number -
Tags Generated
Created
Modified
Stats Distance 274 nm / 507 km
Max Altitude 0 ft / 0 m
Waypoints 3
Social Downloads 4
Likes 0
Share VATSIM

Download

Looking for another format? Having issues loading an existing format? Contact us
Advertisement - Login to hide

Notes

Generated

Route

LGTS SNI10 LGSR

ID Type Via Altitude Latitude Longitude Leg Dist Tot Dist Heading (true) Name
O LGTS APT - 0 ft / 0 m 40.52196˚ 22.95907˚ - 0 nm - -
SNI10 FIX - 0 ft / 0 m 36.54930˚ 25.39462˚ 264 nm 264 nm 154° / 155° -
O LGSR APT - 0 ft / 0 m 36.40811˚ 25.47509˚ 9 nm 273 nm 155° / 155° -

Altitude Profile

Advertisement - Login to hide

Weather


0- 5 10 15 20 25 30 35+ Temperature / ° C

Clouds and Precipitation
Forecast for 2018-05-20 12:00 UTC. Updated an hour ago

Ground ~20,000 ft ~40,000 ft Winds

LGTS

Details ICAO LGTS (SKG)
Name Thessalonik Makedonia
Region Greece
Timezone Europe/Athens (UTC+3.0)
Stats Elevation 22 ft / 7 m (AMSL)
Location 40.519522° 22.972017°
Runways 2
Magnetic Variation 4.666° E

METAR

LGTS 201150Z 27008KT 9999 SCT020 27/14 Q1014 NOSIG

Decode

TAF

TAF LGTS 201100Z 2012/2112 16015KT 9999 SCT025 TEMPO 2012/2016 7000 RA PROB30 TEMPO 2012/2015 5000 TSRA FEW015CB BKN030 BECMG 2018/2020 VRB03KT PROB40 TEMPO 2100/2112 6000 SHRA FEW020CB BKN025

Decode

Departure Runways

ID Width Length Bearing (true) Bearing (mag) Surface Threshold Offset Overrun Length
10 164 ft / 50 m 7,990 ft / 2,435 m 103.95° 99.28° Asphalt 0 ft / 0 m 150 ft / 46 m
16 197 ft / 60 m 7,927 ft / 2,416 m 166.35° 161.68° Asphalt 0 ft / 0 m 200 ft / 61 m
28 164 ft / 50 m 7,990 ft / 2,435 m 283.97° 279.30° Asphalt 0 ft / 0 m 150 ft / 46 m
34 197 ft / 60 m 7,927 ft / 2,416 m 346.36° 341.69° Asphalt 0 ft / 0 m 200 ft / 61 m

LGSR

Details ICAO LGSR (JTR)
Name SANTORINI
Region Greece
Timezone Europe/Athens (UTC+3.0)
Stats Elevation 127 ft / 39 m (AMSL)
Location 36.398949° 25.478507°
Runways 2
Magnetic Variation 4.553° E

METAR

LGSR 201150Z 01009KT 9999 FEW020 23/17 Q1012 RMK FEW080 BKN180 BLU

Decode

TAF

TAF LGSR 201100Z 2012/2112 01012KT 9999 FEW020 SCT030 TEMPO 2012/2018 36010G20KT

Decode

Destination Runways

ID Width Length Bearing (true) Bearing (mag) Surface Threshold Offset Overrun Length
16L 98 ft / 30 m 6,978 ft / 2,127 m 159.53° 154.98° Asphalt 0 ft / 0 m 909 ft / 277 m
16R 98 ft / 30 m 6,969 ft / 2,124 m 159.56° 155.01° Asphalt 0 ft / 0 m 420 ft / 128 m
34L 98 ft / 30 m 6,969 ft / 2,124 m 339.56° 335.01° Asphalt 0 ft / 0 m 0 ft / 0 m
34R 98 ft / 30 m 6,978 ft / 2,127 m 339.54° 334.99° Asphalt 0 ft / 0 m 0 ft / 0 m

Popular Alternatives